Time;durP1;ratioP1;P1;durP2;ratioP2;P2;SDS_P1;SDS_P2;PMS_P1;PMS_P2;Temp;Humidity;BMP_temperature;BMP_pressure;BME280_temperature;BME280_humidity;BME280_pressure;Samples;Min_cycle;Max_cycle;Signal;HPM_P1;HPM_P2
2022/06/08 00:03:26;;;;;;;;;;;;;;;13.5;62.40918;101069.6;;;;-82
2022/06/08 00:08:24;;;;;;;;;;;;;;;13.5;62.56445;101060.2;;;;-83
2022/06/08 00:10:40;;;;;;;11.9;6.5;;;;;;;;;;;;;-82
2022/06/08 00:13:24;;;;;;;;;;;;;;;13.51;62.58984;101054.4;;;;-83
2022/06/08 00:18:23;;;;;;;;;;;;;;;13.52;62.59082;101049.1;;;;-81
2022/06/08 00:23:23;;;;;;;;;;;;;;;13.53;62.91699;101041.3;;;;-85
2022/06/08 00:28:24;;;;;;;;;;;;;;;13.54;62.99707;101048.5;;;;-81
2022/06/08 00:33:25;;;;;;;;;;;;;;;13.57;62.83301;101038.6;;;;-83
2022/06/08 00:38:24;;;;;;;;;;;;;;;13.6;62.82715;101031.6;;;;-83
2022/06/08 00:40:46;;;;;;;11.4;6.5;;;;;;;;;;;;;-84
2022/06/08 00:43:23;;;;;;;;;;;;;;;13.64;63.00098;101027.7;;;;-83
2022/06/08 00:48:27;;;;;;;;;;;;;;;13.68;62.97266;101018.4;;;;-81
2022/06/08 00:53:30;;;;;;;;;;;;;;;13.72;62.77637;101016.2;;;;-83
2022/06/08 00:58:25;;;;;;;;;;;;;;;13.76;63.16211;101005.3;;;;-83
2022/06/08 01:03:24;;;;;;;;;;;;;;;13.79;62.73047;101004.7;;;;-82
2022/06/08 01:08:26;;;;;;;;;;;;;;;13.85;63.52344;101001.8;;;;-82
2022/06/08 01:10:44;;;;;;;11.2;6.1;;;;;;;;;;;;;-82
2022/06/08 01:13:24;;;;;;;;;;;;;;;13.88;62.6748;100994.8;;;;-83
2022/06/08 01:18:26;;;;;;;;;;;;;;;13.91;63.28516;100987;;;;-84
2022/06/08 01:23:24;;;;;;;;;;;;;;;13.95;62.66309;100979.9;;;;-84
2022/06/08 01:28:27;;;;;;;;;;;;;;;13.99;62.54688;100972.2;;;;-83
2022/06/08 01:33:34;;;;;;;;;;;;;;;14.01;62.72852;100967.6;;;;-84
2022/06/08 01:38:29;;;;;;;;;;;;;;;14.04;62.63281;100965.2;;;;-83
2022/06/08 01:41:03;;;;;;;8.8;5.4;;;;;;;;;;;;;-84
2022/06/08 01:43:31;;;;;;;;;;;;;;;14.07;62.94922;100952.1;;;;-82
2022/06/08 01:48:31;;;;;;;;;;;;;;;14.09;62.48242;100943.5;;;;-83
2022/06/08 01:53:31;;;;;;;;;;;;;;;14.12;62.96777;100942.9;;;;-83
2022/06/08 01:58:26;;;;;;;;;;;;;;;14.14;63.26367;100935.2;;;;-81
2022/06/08 02:03:27;;;;;;;;;;;;;;;14.15;63.0166;100932.3;;;;-81
2022/06/08 02:08:26;;;;;;;;;;;;;;;14.17;62.8623;100924.8;;;;-84
2022/06/08 02:10:52;;;;;;;8.2;4.7;;;;;;;;;;;;;-81
2022/06/08 02:13:25;;;;;;;;;;;;;;;14.18;62.79688;100911.1;;;;-82
2022/06/08 02:18:31;;;;;;;;;;;;;;;14.17;62.8291;100905.5;;;;-82
2022/06/08 02:23:26;;;;;;;;;;;;;;;14.18;63.64844;100898.8;;;;-83
2022/06/08 02:28:26;;;;;;;;;;;;;;;14.12;64.63867;100887.1;;;;-82
2022/06/08 02:38:25;;;;;;;;;;;;;;;14.04;65.54492;100875.5;;;;-83
2022/06/08 02:40:46;;;;;;;10.1;4.6;;;;;;;;;;;;;-81
2022/06/08 02:43:27;;;;;;;;;;;;;;;13.99;65.57227;100872.7;;;;-84
2022/06/08 02:48:34;;;;;;;;;;;;;;;13.94;65.91211;100864.2;;;;-84
2022/06/08 02:53:34;;;;;;;;;;;;;;;13.91;65.96289;100863.7;;;;-83
2022/06/08 02:58:28;;;;;;;;;;;;;;;13.86;65.97754;100858.2;;;;-83
2022/06/08 03:03:26;;;;;;;;;;;;;;;13.82;66.08398;100852.4;;;;-83
2022/06/08 03:08:26;;;;;;;;;;;;;;;13.78;65.72949;100848.7;;;;-84
2022/06/08 03:10:47;;;;;;;10.3;4.9;;;;;;;;;;;;;-82
2022/06/08 03:13:26;;;;;;;;;;;;;;;13.74;65.99316;100843.3;;;;-84
2022/06/08 03:18:28;;;;;;;;;;;;;;;13.69;66.26563;100839.4;;;;-83
2022/06/08 03:23:25;;;;;;;;;;;;;;;13.66;66.19531;100833.9;;;;-80
2022/06/08 03:28:24;;;;;;;;;;;;;;;13.64;67.09668;100837.4;;;;-81
2022/06/08 03:33:24;;;;;;;;;;;;;;;13.63;67.96777;100837;;;;-84
2022/06/08 03:38:26;;;;;;;;;;;;;;;13.65;67.31055;100841.6;;;;-83
2022/06/08 03:40:51;;;;;;;12.9;6.4;;;;;;;;;;;;;-83
2022/06/08 03:43:24;;;;;;;;;;;;;;;13.64;67.74707;100840.6;;;;-83
2022/06/08 03:48:26;;;;;;;;;;;;;;;13.69;67.97656;100835.1;;;;-81
2022/06/08 03:53:26;;;;;;;;;;;;;;;13.74;67.53711;100833.6;;;;-84
2022/06/08 03:58:24;;;;;;;;;;;;;;;13.78;67.84668;100829.6;;;;-83
2022/06/08 04:03:27;;;;;;;;;;;;;;;13.83;68.3457;100829.5;;;;-83
2022/06/08 04:08:24;;;;;;;;;;;;;;;13.88;68.7793;100822.8;;;;-84
2022/06/08 04:10:48;;;;;;;13.6;7.3;;;;;;;;;;;;;-85
2022/06/08 04:13:23;;;;;;;;;;;;;;;13.95;69.32617;100828.2;;;;-83
2022/06/08 04:18:27;;;;;;;;;;;;;;;14.02;69.77441;100824.4;;;;-84
2022/06/08 04:23:24;;;;;;;;;;;;;;;14.1;69.29297;100827.3;;;;-83
2022/06/08 04:28:25;;;;;;;;;;;;;;;14.17;69.95508;100831.4;;;;-83
2022/06/08 04:33:24;;;;;;;;;;;;;;;14.25;70.20215;100820.1;;;;-82
2022/06/08 04:38:24;;;;;;;;;;;;;;;14.31;70.60449;100822.1;;;;-82
2022/06/08 04:40:50;;;;;;;13.2;7.6;;;;;;;;;;;;;-83
2022/06/08 04:43:28;;;;;;;;;;;;;;;14.37;70.93848;100817.6;;;;-82
2022/06/08 04:48:27;;;;;;;;;;;;;;;14.44;70.33301;100808.8;;;;-82
2022/06/08 04:53:23;;;;;;;;;;;;;;;14.57;70.11816;100809.4;;;;-83
2022/06/08 04:58:26;;;;;;;;;;;;;;;14.74;69.89941;100808.9;;;;-82
2022/06/08 05:03:29;;;;;;;;;;;;;;;14.9;69.23047;100806.1;;;;-82
2022/06/08 05:08:27;;;;;;;;;;;;;;;15.07;69.33594;100799.9;;;;-84
2022/06/08 05:10:51;;;;;;;10.4;6.4;;;;;;;;;;;;;-83
2022/06/08 05:13:26;;;;;;;;;;;;;;;15.21;69.22266;100798.3;;;;-84
2022/06/08 05:18:26;;;;;;;;;;;;;;;15.35;69.19922;100796.9;;;;-83
2022/06/08 05:23:25;;;;;;;;;;;;;;;15.47;69.01563;100791.1;;;;-84
2022/06/08 05:28:27;;;;;;;;;;;;;;;15.6;68.98047;100785.9;;;;-83
2022/06/08 05:33:23;;;;;;;;;;;;;;;15.74;68.96875;100778.8;;;;-83
2022/06/08 05:38:24;;;;;;;;;;;;;;;15.89;68.3291;100776.5;;;;-85
2022/06/08 05:40:53;;;;;;;9.3;5;;;;;;;;;;;;;-84
2022/06/08 05:43:24;;;;;;;;;;;;;;;16.02;68.4043;100779.5;;;;-84
2022/06/08 05:48:23;;;;;;;;;;;;;;;16.1;68.33887;100773.9;;;;-85
2022/06/08 05:53:23;;;;;;;;;;;;;;;16.17;68.29297;100768.4;;;;-83
2022/06/08 05:58:25;;;;;;;;;;;;;;;16.24;67.97656;100769.5;;;;-84
2022/06/08 06:03:24;;;;;;;;;;;;;;;16.33;67.82324;100766;;;;-84
2022/06/08 06:08:23;;;;;;;;;;;;;;;16.47;67.41602;100763.8;;;;-84
2022/06/08 06:10:54;;;;;;;9.1;4.2;;;;;;;;;;;;;-84
2022/06/08 06:13:23;;;;;;;;;;;;;;;16.61;67.12305;100757.3;;;;-87
2022/06/08 06:18:28;;;;;;;;;;;;;;;16.79;67.14941;100757.3;;;;-84
2022/06/08 06:23:29;;;;;;;;;;;;;;;16.96;66.69043;100755.1;;;;-85
2022/06/08 06:28:31;;;;;;;;;;;;;;;17.16;66.21289;100753.7;;;;-83
2022/06/08 06:33:24;;;;;;;;;;;;;;;17.34;65.86816;100746.7;;;;-84
2022/06/08 06:38:23;;;;;;;;;;;;;;;17.54;65.69434;100739.4;;;;-84
2022/06/08 06:40:56;;;;;;;6.3;3.3;;;;;;;;;;;;;-84
2022/06/08 06:43:27;;;;;;;;;;;;;;;17.78;65.08496;100735.2;;;;-83
2022/06/08 06:48:26;;;;;;;;;;;;;;;18;64.61035;100737.1;;;;-83
2022/06/08 06:53:26;;;;;;;;;;;;;;;18.21;64.15234;100733.6;;;;-83
2022/06/08 06:58:26;;;;;;;;;;;;;;;18.37;63.80273;100724;;;;-83
2022/06/08 07:03:24;;;;;;;;;;;;;;;18.48;63.45605;100725.7;;;;-85
2022/06/08 07:08:24;;;;;;;;;;;;;;;18.55;63.16016;100717.9;;;;-83
2022/06/08 07:13:27;;;;;;;;;;;;;;;18.69;62.625;100716.3;;;;-81
2022/06/08 07:18:24;;;;;;;;;;;;;;;18.82;62.91602;100710;;;;-84
2022/06/08 07:23:23;;;;;;;;;;;;;;;19.04;62.40234;100709.7;;;;-84
2022/06/08 07:28:24;;;;;;;;;;;;;;;19.35;61.75195;100699.5;;;;-82
2022/06/08 07:33:24;;;;;;;;;;;;;;;19.7;60.83594;100696.1;;;;-84
2022/06/08 07:38:24;;;;;;;;;;;;;;;19.93;60.37793;100689.2;;;;-84
2022/06/08 07:41:00;;;;;;;5.3;3.2;;;;;;;;;;;;;-84
2022/06/08 07:43:23;;;;;;;;;;;;;;;20.1;60.09375;100684;;;;-84
2022/06/08 07:53:26;;;;;;;;;;;;;;;20.45;59.32129;100686;;;;-83
2022/06/08 07:58:25;;;;;;;;;;;;;;;20.6;58.94238;100680.5;;;;-83
2022/06/08 08:03:23;;;;;;;;;;;;;;;20.76;58.70117;100679.6;;;;-83
2022/06/08 08:08:23;;;;;;;;;;;;;;;20.91;58.26563;100675;;;;-83
2022/06/08 08:11:03;;;;;;;4.1;2.4;;;;;;;;;;;;;-84
2022/06/08 08:13:32;;;;;;;;;;;;;;;21;58.02637;100671.4;;;;-84
2022/06/08 08:18:24;;;;;;;;;;;;;;;21.11;57.78906;100671.9;;;;-85
2022/06/08 08:23:24;;;;;;;;;;;;;;;21.17;57.4541;100668.5;;;;-84
2022/06/08 08:28:23;;;;;;;;;;;;;;;21.23;57.47363;100659.7;;;;-85
2022/06/08 08:33:23;;;;;;;;;;;;;;;21.33;57.3252;100662.9;;;;-83
2022/06/08 08:38:24;;;;;;;;;;;;;;;21.49;57.25684;100656.3;;;;-83
2022/06/08 08:42:20;;;;;;;5;2.6;;;;;;;;;;;;;-84
2022/06/08 08:43:25;;;;;;;;;;;;;;;21.72;57.18262;100645.8;;;;-83
2022/06/08 08:48:27;;;;;;;;;;;;;;;21.96;56.77832;100633.8;;;;-84
2022/06/08 08:53:38;;;;;;;;;;;;;;;22.23;56.37793;100632.1;;;;-84
2022/06/08 08:58:29;;;;;;;;;;;;;;;22.45;56.15527;100631.8;;;;-84
2022/06/08 09:03:31;;;;;;;;;;;;;;;22.71;55.74023;100636.5;;;;-83
2022/06/08 09:08:24;;;;;;;;;;;;;;;23.03;55.01172;100633;;;;-83
2022/06/08 09:11:16;;;;;;;6.5;3.7;;;;;;;;;;;;;-85
2022/06/08 09:13:33;;;;;;;;;;;;;;;23.29;54.46875;100632.1;;;;-85
2022/06/08 09:18:40;;;;;;;;;;;;;;;23.32;54.12891;100629;;;;-85
2022/06/08 09:23:33;;;;;;;;;;;;;;;23.2;54.60742;100625.1;;;;-86
2022/06/08 09:28:37;;;;;;;;;;;;;;;23.14;54.80664;100617.5;;;;-85
2022/06/08 09:33:27;;;;;;;;;;;;;;;23.07;55.08496;100615.9;;;;-87
2022/06/08 09:38:28;;;;;;;;;;;;;;;23.06;55.00293;100620.3;;;;-86
2022/06/08 09:41:25;;;;;;;10.3;6.9;;;;;;;;;;;;;-84
2022/06/08 09:43:48;;;;;;;;;;;;;;;23.06;55.23242;100617.8;;;;-88
2022/06/08 09:53:35;;;;;;;;;;;;;;;23.08;55.54395;100611.2;;;;-85
2022/06/08 09:58:37;;;;;;;;;;;;;;;23.18;55.49902;100609.2;;;;-86
2022/06/08 10:03:38;;;;;;;;;;;;;;;23.39;55.07813;100611.5;;;;-82
2022/06/08 10:08:28;;;;;;;;;;;;;;;23.59;54.90723;100606.8;;;;-84
2022/06/08 10:11:42;;;;;;;11.6;8.3;;;;;;;;;;;;;-83
2022/06/08 10:13:29;;;;;;;;;;;;;;;23.83;54.28125;100603.1;;;;-81
2022/06/08 10:18:26;;;;;;;;;;;;;;;24.02;53.51074;100601.6;;;;-84
2022/06/08 10:23:30;;;;;;;;;;;;;;;24.12;53.20117;100599.1;;;;-84
2022/06/08 10:28:33;;;;;;;;;;;;;;;24.17;53.0459;100598.3;;;;-85
2022/06/08 10:33:31;;;;;;;;;;;;;;;24.1;52.84277;100608.5;;;;-87
2022/06/08 10:38:27;;;;;;;;;;;;;;;23.9;53.94629;100608.9;;;;-83
2022/06/08 10:43:37;;;;;;;;;;;;;;;23.62;55.27832;100601.3;;;;-82
2022/06/08 10:48:39;;;;;;;;;;;;;;;23.31;55.73438;100616.1;;;;-82
2022/06/08 10:58:25;;;;;;;;;;;;;;;22.59;56.62891;100624.6;;;;-82
2022/06/08 11:03:42;;;;;;;;;;;;;;;22.27;57.23047;100635.1;;;;-84
2022/06/08 11:08:38;;;;;;;;;;;;;;;21.95;57.37207;100639.2;;;;-83
2022/06/08 11:11:35;;;;;;;5;2.6;;;;;;;;;;;;;-83
2022/06/08 11:13:35;;;;;;;;;;;;;;;21.65;57.58496;100646.1;;;;-83
2022/06/08 11:18:31;;;;;;;;;;;;;;;21.48;57.7793;100657.8;;;;-82
2022/06/08 11:28:50;;;;;;;;;;;;;;;21.15;58.64941;100649.3;;;;-83
2022/06/08 11:33:29;;;;;;;;;;;;;;;21.01;59.11133;100651.8;;;;-80
2022/06/08 11:38:02;;;;;;;;;;;;;;;20.8;59.15137;100653;;;;-82
2022/06/08 11:41:51;;;;;;;;;;;;;;;;;;;;;
2022/06/08 11:43:44;;;;;;;;;;;;;;;20.83;59.01758;100643.1;;;;-82
2022/06/08 11:47:16;;;;;;;;;;;;;;;20.51;59.64746;100649.4;;;;-81
2022/06/08 11:52:04;;;;;;;;;;;;;;;20.35;60.00195;100643;;;;-81
2022/06/08 11:55:37;;;;;;;;;;;;;;;20.51;59.19238;100638.3;;;;-81
2022/06/08 11:58:11;;;;;;;;;;;;;;;20.21;60.13184;100640.7;;;;-82
2022/06/08 12:11:30;;;;;;;3.9;1.5;;;;;;;;;;;;;-82
2022/06/08 12:12:42;;;;;;;;;;;;;;;19.91;60.9082;100632.1;;;;-80
2022/06/08 12:20:25;;;;;;;;;;;;;;;19.94;61.05078;100618.1;;;;-81
2022/06/08 12:57:19;;;;;;;;;;;;;;;19.37;62.32422;100599.3;;;;-84
2022/06/08 13:00:07;;;;;;;;;;;;;;;19.08;62.71387;100597;;;;-82
2022/06/08 13:05:12;;;;;;;;;;;;;;;19.01;62.89648;100594.1;;;;-82
2022/06/08 13:10:02;;;;;;;;;;;;;;;18.97;63.26563;100590.3;;;;-83
2022/06/08 13:11:36;;;;;;;3.4;2;;;;;;;;;;;;;-82
2022/06/08 13:15:00;;;;;;;;;;;;;;;18.92;63.08887;100585.5;;;;-82
2022/06/08 13:20:01;;;;;;;;;;;;;;;18.87;63.19434;100582.2;;;;-82
2022/06/08 13:25:04;;;;;;;;;;;;;;;18.81;63.10547;100585.5;;;;-83
2022/06/08 13:30:01;;;;;;;;;;;;;;;18.7;63.21484;100580.8;;;;-81
2022/06/08 13:35:07;;;;;;;;;;;;;;;18.62;63.31738;100578.2;;;;-82
2022/06/08 13:40:23;;;;;;;;;;;;;;;18.54;63.13672;100580.4;;;;-82
2022/06/08 13:45:15;;;;;;;;;;;;;;;18.47;63.37402;100581.3;;;;-82
2022/06/08 13:50:03;;;;;;;;;;;;;;;18.42;63.29004;100577.8;;;;-83
2022/06/08 13:55:03;;;;;;;;;;;;;;;18.35;63.40234;100578.9;;;;-82
2022/06/08 14:00:02;;;;;;;;;;;;;;;18.29;63.41895;100579.9;;;;-83
2022/06/08 14:05:04;;;;;;;;;;;;;;;18.24;63.58105;100578.1;;;;-81
2022/06/08 14:15:05;;;;;;;;;;;;;;;18.15;63.89551;100572.3;;;;-83
2022/06/08 14:20:01;;;;;;;;;;;;;;;18.1;64.24023;100567.5;;;;-82
2022/06/08 14:25:04;;;;;;;;;;;;;;;18.04;64.25195;100566.3;;;;-86
2022/06/08 14:30:01;;;;;;;;;;;;;;;18;63.81836;100565.7;;;;-83
2022/06/08 14:35:00;;;;;;;;;;;;;;;17.97;63.92578;100563.7;;;;-82
2022/06/08 14:40:00;;;;;;;;;;;;;;;17.9;64.58301;100559.3;;;;-81
2022/06/08 14:41:42;;;;;;;2.8;1.6;;;;;;;;;;;;;-83
2022/06/08 14:45:01;;;;;;;;;;;;;;;17.86;64.1709;100557.6;;;;-83
2022/06/08 14:50:08;;;;;;;;;;;;;;;17.81;64.7168;100553.6;;;;-81
2022/06/08 15:00:03;;;;;;;;;;;;;;;17.73;65.01074;100550.4;;;;-82
2022/06/08 15:05:02;;;;;;;;;;;;;;;17.7;64.70215;100555.8;;;;-82
2022/06/08 15:10:03;;;;;;;;;;;;;;;17.67;65.75684;100548.6;;;;-83
2022/06/08 15:15:03;;;;;;;;;;;;;;;17.63;65.2334;100546.5;;;;-82
2022/06/08 15:20:01;;;;;;;;;;;;;;;17.57;65.83398;100546.9;;;;-83
2022/06/08 15:25:02;;;;;;;;;;;;;;;17.52;65.49805;100550.5;;;;-82
2022/06/08 15:30:01;;;;;;;;;;;;;;;17.44;66.22168;100552.7;;;;-83
2022/06/08 15:35:01;;;;;;;;;;;;;;;17.36;66.86328;100549.3;;;;-84
2022/06/08 15:40:02;;;;;;;;;;;;;;;17.29;67.42773;100544.2;;;;-84
2022/06/08 15:41:48;;;;;;;6;2.5;;;;;;;;;;;;;-83
2022/06/08 15:45:01;;;;;;;;;;;;;;;17.26;67.67188;100543.5;;;;-81
2022/06/08 15:50:01;;;;;;;;;;;;;;;17.24;67.69043;100544.3;;;;-83
2022/06/08 15:55:02;;;;;;;;;;;;;;;17.23;67.7002;100544.3;;;;-83
2022/06/08 16:00:07;;;;;;;;;;;;;;;17.23;68.12891;100546.6;;;;-83
2022/06/08 16:05:00;;;;;;;;;;;;;;;17.26;67.7627;100545.6;;;;-82
2022/06/08 16:10:03;;;;;;;;;;;;;;;17.29;68.29785;100546.8;;;;-84
2022/06/08 16:11:47;;;;;;;7.3;3.4;;;;;;;;;;;;;-83
2022/06/08 16:15:03;;;;;;;;;;;;;;;17.3;68.32227;100548.7;;;;-83
2022/06/08 16:20:01;;;;;;;;;;;;;;;17.31;68.72754;100547;;;;-81
2022/06/08 16:25:02;;;;;;;;;;;;;;;17.31;68.99805;100552.8;;;;-84
2022/06/08 16:30:02;;;;;;;;;;;;;;;17.29;69.12109;100558.5;;;;-81
2022/06/08 16:35:01;;;;;;;;;;;;;;;17.28;69.19727;100558.1;;;;-82
2022/06/08 16:42:17;;;;;;;13.4;3.9;;;;;;;;;;;;;-82
2022/06/08 16:46:00;;;;;;;;;;;;;;;17.27;69.04883;100562;;;;-80
2022/06/08 16:51:15;;;;;;;;;;;;;;;17.27;69.16016;100568.4;;;;-81
2022/06/08 16:55:56;;;;;;;;;;;;;;;17.48;69.26172;100568.7;;;;-82
2022/06/08 17:00:21;;;;;;;;;;;;;;;17.28;69.68164;100575.5;;;;-83
2022/06/08 17:10:13;;;;;;;;;;;;;;;17.27;69.57715;100579.6;;;;-82
2022/06/08 17:12:09;;;;;;;10.2;3.5;;;;;;;;;;;;;-81
2022/06/08 17:15:50;;;;;;;;;;;;;;;17.54;68.90039;100577.1;;;;-82
2022/06/08 17:18:56;;;;;;;;;;;;;;;17.29;69.48047;100586.4;;;;-83
2022/06/08 17:23:56;;;;;;;;;;;;;;;17.3;69.62793;100591.1;;;;-81
2022/06/08 17:28:57;;;;;;;;;;;;;;;17.31;69.4834;100593.6;;;;-83
2022/06/08 17:34:18;;;;;;;;;;;;;;;17.33;69.4873;100594.8;;;;-84
2022/06/08 17:39:06;;;;;;;;;;;;;;;17.37;69.66211;100594.5;;;;-82
2022/06/08 17:42:20;;;;;;;11.5;3.3;;;;;;;;;;;;;-84
2022/06/08 17:43:56;;;;;;;;;;;;;;;17.42;69.52441;100602.9;;;;-83
2022/06/08 17:49:12;;;;;;;;;;;;;;;17.47;69.27344;100605.2;;;;-83
2022/06/08 17:53:56;;;;;;;;;;;;;;;17.51;69.27734;100609.2;;;;-82
2022/06/08 17:58:58;;;;;;;;;;;;;;;17.52;69.01953;100619.7;;;;-83
2022/06/08 18:04:04;;;;;;;;;;;;;;;17.52;68.54785;100621.8;;;;-82
2022/06/08 18:09:04;;;;;;;;;;;;;;;17.5;68.38672;100619.8;;;;-81
2022/06/08 18:12:06;;;;;;;11.3;2.7;;;;;;;;;;;;;-83
2022/06/08 18:13:56;;;;;;;;;;;;;;;17.46;68.31152;100624.4;;;;-83
2022/06/08 18:19:01;;;;;;;;;;;;;;;17.41;68.37109;100619.2;;;;-82
2022/06/08 18:24:04;;;;;;;;;;;;;;;17.37;68.12891;100623.9;;;;-83
2022/06/08 18:29:09;;;;;;;;;;;;;;;17.32;68.04297;100634.6;;;;-84
2022/06/08 18:34:05;;;;;;;;;;;;;;;17.26;68.29199;100632.9;;;;-82
2022/06/08 18:39:11;;;;;;;;;;;;;;;17.2;68.63379;100638.1;;;;-82
2022/06/08 18:41:59;;;;;;;11.7;2.6;;;;;;;;;;;;;-81
2022/06/08 18:44:04;;;;;;;;;;;;;;;17.12;68.46191;100627.3;;;;-83
2022/06/08 18:48:59;;;;;;;;;;;;;;;17.08;68.50098;100638;;;;-83
2022/06/08 18:53:59;;;;;;;;;;;;;;;17.02;68.53809;100641.4;;;;-82
2022/06/08 18:59:01;;;;;;;;;;;;;;;16.95;68.60547;100644.8;;;;-83
2022/06/08 19:04:05;;;;;;;;;;;;;;;16.88;68.93164;100651.2;;;;-84
2022/06/08 19:09:00;;;;;;;;;;;;;;;16.8;69.16895;100654.4;;;;-82
2022/06/08 19:11:59;;;;;;;10.7;2.4;;;;;;;;;;;;;-82
2022/06/08 19:13:57;;;;;;;;;;;;;;;16.73;69.29199;100653.7;;;;-83
2022/06/08 19:23:58;;;;;;;;;;;;;;;16.66;69.64063;100655.3;;;;-82
2022/06/08 19:28:55;;;;;;;;;;;;;;;16.64;69.73828;100665.3;;;;-84
2022/06/08 19:33:57;;;;;;;;;;;;;;;16.61;69.69043;100659.3;;;;-83
2022/06/08 19:38:58;;;;;;;;;;;;;;;16.59;69.55078;100665.2;;;;-82
2022/06/08 19:42:03;;;;;;;13.5;2.3;;;;;;;;;;;;;-79
2022/06/08 19:43:56;;;;;;;;;;;;;;;16.52;69.60645;100663.8;;;;-81
2022/06/08 19:48:56;;;;;;;;;;;;;;;16.42;69.79395;100670.4;;;;-81
2022/06/08 19:54:03;;;;;;;;;;;;;;;16.33;70.00586;100678.2;;;;-83
2022/06/08 19:58:56;;;;;;;;;;;;;;;16.24;70.13574;100690.5;;;;-81
2022/06/08 20:03:56;;;;;;;;;;;;;;;16.13;70.41406;100691.4;;;;-83
2022/06/08 20:09:07;;;;;;;;;;;;;;;16.04;70.44238;100703;;;;-83
2022/06/08 20:12:05;;;;;;;12.5;2.3;;;;;;;;;;;;;-83
2022/06/08 20:14:03;;;;;;;;;;;;;;;15.94;70.82031;100706.7;;;;-82
2022/06/08 20:18:58;;;;;;;;;;;;;;;15.86;71.11035;100708.4;;;;-82
2022/06/08 20:23:58;;;;;;;;;;;;;;;15.78;71.33301;100715.2;;;;-82
2022/06/08 20:29:00;;;;;;;;;;;;;;;15.69;71.74512;100717.1;;;;-82
2022/06/08 20:33:59;;;;;;;;;;;;;;;15.6;71.78711;100717.3;;;;-83
2022/06/08 20:38:59;;;;;;;;;;;;;;;15.51;72.00879;100725.3;;;;-83
2022/06/08 20:42:05;;;;;;;14.3;2.7;;;;;;;;;;;;;-82
2022/06/08 20:44:12;;;;;;;;;;;;;;;15.44;72.23242;100722.6;;;;-83
2022/06/08 20:49:05;;;;;;;;;;;;;;;15.36;72.47656;100721.3;;;;-82
2022/06/08 20:53:56;;;;;;;;;;;;;;;15.29;72.85742;100718.9;;;;-82
2022/06/08 20:58:56;;;;;;;;;;;;;;;15.22;72.96875;100727.2;;;;-82
2022/06/08 21:03:57;;;;;;;;;;;;;;;15.15;73.33691;100734.5;;;;-82
2022/06/08 21:08:55;;;;;;;;;;;;;;;15.09;73.2959;100739;;;;-82
2022/06/08 21:12:08;;;;;;;10.7;2.2;;;;;;;;;;;;;-82
2022/06/08 21:13:55;;;;;;;;;;;;;;;15.03;73.35254;100739.2;;;;-82
2022/06/08 21:18:55;;;;;;;;;;;;;;;14.98;73.45703;100746.9;;;;-82
2022/06/08 21:23:56;;;;;;;;;;;;;;;14.93;73.71484;100745.2;;;;-82
2022/06/08 21:28:57;;;;;;;;;;;;;;;14.89;73.36328;100756.6;;;;-81
2022/06/08 21:33:56;;;;;;;;;;;;;;;14.84;73.70215;100755.2;;;;-81
2022/06/08 21:38:57;;;;;;;;;;;;;;;14.79;73.85059;100764.1;;;;-82
2022/06/08 21:42:09;;;;;;;12.2;1.9;;;;;;;;;;;;;-83
2022/06/08 21:43:55;;;;;;;;;;;;;;;14.73;73.96484;100757.3;;;;-83
2022/06/08 21:49:00;;;;;;;;;;;;;;;14.7;73.8916;100751.7;;;;-83
2022/06/08 21:53:55;;;;;;;;;;;;;;;14.65;74.0166;100743.7;;;;-82
2022/06/08 21:58:56;;;;;;;;;;;;;;;14.6;74.10938;100745.6;;;;-83
2022/06/08 22:03:55;;;;;;;;;;;;;;;14.57;74.40527;100750.3;;;;-81
2022/06/08 22:08:55;;;;;;;;;;;;;;;14.52;74.63281;100740.8;;;;-81
2022/06/08 22:12:10;;;;;;;15.1;2.3;;;;;;;;;;;;;-83
2022/06/08 22:13:55;;;;;;;;;;;;;;;14.48;74.58008;100741;;;;-81
2022/06/08 22:18:57;;;;;;;;;;;;;;;14.45;74.6543;100737.7;;;;-83
2022/06/08 22:23:55;;;;;;;;;;;;;;;14.42;74.4707;100732.1;;;;-82
2022/06/08 22:28:56;;;;;;;;;;;;;;;14.4;74.52148;100727.1;;;;-84
2022/06/08 22:33:57;;;;;;;;;;;;;;;14.36;74.31641;100729.3;;;;-81
2022/06/08 22:38:58;;;;;;;;;;;;;;;14.33;74.0957;100729;;;;-81
2022/06/08 22:42:13;;;;;;;9.3;1.9;;;;;;;;;;;;;-82
2022/06/08 22:43:56;;;;;;;;;;;;;;;14.26;74.15234;100726.7;;;;-83
2022/06/08 22:48:56;;;;;;;;;;;;;;;14.21;74.26758;100728.6;;;;-81
2022/06/08 22:53:55;;;;;;;;;;;;;;;14.14;74.05371;100737.2;;;;-80
2022/06/08 22:58:57;;;;;;;;;;;;;;;14.04;74.22852;100744.1;;;;-81
2022/06/08 23:03:55;;;;;;;;;;;;;;;13.96;74.38086;100744.9;;;;-80
2022/06/08 23:08:55;;;;;;;;;;;;;;;13.91;74.29492;100751.8;;;;-82
2022/06/08 23:12:22;;;;;;;8.6;1.8;;;;;;;;;;;;;-82
2022/06/08 23:13:55;;;;;;;;;;;;;;;13.83;74.16992;100745.9;;;;-81
2022/06/08 23:23:55;;;;;;;;;;;;;;;13.75;73.95508;100756.4;;;;-81
2022/06/08 23:28:56;;;;;;;;;;;;;;;13.7;74.11328;100758.5;;;;-80
2022/06/08 23:33:55;;;;;;;;;;;;;;;13.68;73.87695;100765;;;;-82
2022/06/08 23:38:56;;;;;;;;;;;;;;;13.68;74.11035;100765.6;;;;-83
2022/06/08 23:42:15;;;;;;;8.5;2;;;;;;;;;;;;;-81
2022/06/08 23:43:55;;;;;;;;;;;;;;;13.66;73.7832;100767.9;;;;-82
2022/06/08 23:48:55;;;;;;;;;;;;;;;13.62;73.94434;100775;;;;-81
2022/06/08 23:53:55;;;;;;;;;;;;;;;13.58;73.84766;100785.4;;;;-81
2022/06/08 23:58:55;;;;;;;;;;;;;;;13.58;74.04883;100792.4;;;;-83
